O John Clark Restricted Landing Area [CLOSED]

Jump to: basic info | weather | comments

Related pages: nearby airports | nearby navaids | notams | map

Basic information (top)

Codes: 7IL2
Location: lon 42.368401, lat -87.991699, elev 790 ft / 241 m msl
Status: closed

Weather (top)

Current conditions for Waukegan Regional Airport 6nm (12km) ENE (rec'd 2015/04/21 00:55Z):

KUGN 210055Z AUTO 26009G21KT 230V300 10SM BKN046 OVC055 07/M01 A2955 RMK AO2 SLP008 T00671006

Airport forecast for Kenosha Regional Airport 14nm (26km) NNE (rec'd 2015/04/20 00:27Z):

TAF KENW 202325Z 2100/2124 27016G23KT P6SM SCT025 OVC040 
     FM210300 26010KT P6SM BKN050 
     FM210700 24011KT P6SM SCT060 
     FM210900 24011KT P6SM BKN100 
     FM211500 27019KT P6SM BKN035

Latest comments (top)

No comments yet for O John Clark Restricted Landing Area

More... (top)

See also NOTAMs and nearby airports and navaids, or visit the O John Clark Restricted Landing Area page at the main OurAirports website..